sensor_id;sensor_type;location;lat;lon;timestamp;temperature;humidity
10149;DHT22;5115;50.920;6.376;2022-11-30T00:00:31;8.00;99.90
10149;DHT22;5115;50.920;6.376;2022-11-30T00:02:57;8.10;99.90
10149;DHT22;5115;50.920;6.376;2022-11-30T00:05:23;8.10;99.90
10149;DHT22;5115;50.920;6.376;2022-11-30T00:07:49;8.10;99.90
10149;DHT22;5115;50.920;6.376;2022-11-30T00:10:15;8.10;99.90
10149;DHT22;5115;50.920;6.376;2022-11-30T00:12:40;8.20;99.90
10149;DHT22;5115;50.920;6.376;2022-11-30T00:15:10;8.30;99.90
10149;DHT22;5115;50.920;6.376;2022-11-30T00:17:38;9.10;99.90
10149;DHT22;5115;50.920;6.376;2022-11-30T00:20:05;8.30;99.90
10149;DHT22;5115;50.920;6.376;2022-11-30T00:22:30;8.40;99.90
10149;DHT22;5115;50.920;6.376;2022-11-30T00:24:56;8.40;99.90
10149;DHT22;5115;50.920;6.376;2022-11-30T00:27:27;8.40;99.90
10149;DHT22;5115;50.920;6.376;2022-11-30T00:29:53;8.40;99.90
10149;DHT22;5115;50.920;6.376;2022-11-30T00:32:19;8.40;99.90
10149;DHT22;5115;50.920;6.376;2022-11-30T00:34:44;8.50;99.90
10149;DHT22;5115;50.920;6.376;2022-11-30T00:37:10;8.50;99.90
10149;DHT22;5115;50.920;6.376;2022-11-30T00:39:35;8.50;99.90
10149;DHT22;5115;50.920;6.376;2022-11-30T00:42:01;8.50;99.90
10149;DHT22;5115;50.920;6.376;2022-11-30T00:44:26;8.50;99.90
10149;DHT22;5115;50.920;6.376;2022-11-30T00:46:52;8.50;99.90
10149;DHT22;5115;50.920;6.376;2022-11-30T00:49:17;8.50;99.90
10149;DHT22;5115;50.920;6.376;2022-11-30T00:51:43;8.50;99.90
10149;DHT22;5115;50.920;6.376;2022-11-30T00:54:08;8.40;99.90
10149;DHT22;5115;50.920;6.376;2022-11-30T00:56:34;8.50;99.90
10149;DHT22;5115;50.920;6.376;2022-11-30T00:58:59;8.50;99.90
10149;DHT22;5115;50.920;6.376;2022-11-30T01:01:25;8.40;99.90
10149;DHT22;5115;50.920;6.376;2022-11-30T01:03:50;8.40;99.90
10149;DHT22;5115;50.920;6.376;2022-11-30T01:06:16;8.40;99.90
10149;DHT22;5115;50.920;6.376;2022-11-30T01:08:41;8.40;99.90
10149;DHT22;5115;50.920;6.376;2022-11-30T01:11:11;8.50;99.90
10149;DHT22;5115;50.920;6.376;2022-11-30T01:13:39;8.50;99.90
10149;DHT22;5115;50.920;6.376;2022-11-30T01:16:10;8.50;99.90
10149;DHT22;5115;50.920;6.376;2022-11-30T01:18:37;8.40;99.90
10149;DHT22;5115;50.920;6.376;2022-11-30T01:21:11;8.50;99.90
10149;DHT22;5115;50.920;6.376;2022-11-30T01:23:38;8.50;99.90
10149;DHT22;5115;50.920;6.376;2022-11-30T01:26:03;8.40;99.90
10149;DHT22;5115;50.920;6.376;2022-11-30T01:28:29;8.50;99.90
10149;DHT22;5115;50.920;6.376;2022-11-30T01:31:04;8.50;99.90
10149;DHT22;5115;50.920;6.376;2022-11-30T01:33:30;8.50;99.90
10149;DHT22;5115;50.920;6.376;2022-11-30T01:36:01;8.50;99.90
10149;DHT22;5115;50.920;6.376;2022-11-30T01:38:34;8.60;99.90
10149;DHT22;5115;50.920;6.376;2022-11-30T01:41:01;8.50;99.90
10149;DHT22;5115;50.920;6.376;2022-11-30T01:46:51;8.60;99.90
10149;DHT22;5115;50.920;6.376;2022-11-30T01:52:08;8.70;99.90
10149;DHT22;5115;50.920;6.376;2022-11-30T01:54:40;8.60;99.90
10149;DHT22;5115;50.920;6.376;2022-11-30T01:57:20;8.60;99.90
10149;DHT22;5115;50.920;6.376;2022-11-30T01:59:49;8.60;99.90
10149;DHT22;5115;50.920;6.376;2022-11-30T02:02:19;8.60;99.90
10149;DHT22;5115;50.920;6.376;2022-11-30T02:04:47;8.60;99.90
10149;DHT22;5115;50.920;6.376;2022-11-30T02:07:12;8.60;99.90
10149;DHT22;5115;50.920;6.376;2022-11-30T02:09:43;8.70;99.90
10149;DHT22;5115;50.920;6.376;2022-11-30T02:12:19;8.60;99.90
10149;DHT22;5115;50.920;6.376;2022-11-30T02:14:53;8.60;99.90
10149;DHT22;5115;50.920;6.376;2022-11-30T02:17:46;8.60;99.90
10149;DHT22;5115;50.920;6.376;2022-11-30T02:20:29;8.60;99.90
10149;DHT22;5115;50.920;6.376;2022-11-30T02:25:51;8.60;99.90
10149;DHT22;5115;50.920;6.376;2022-11-30T02:28:33;8.60;99.90
10149;DHT22;5115;50.920;6.376;2022-11-30T02:31:07;8.60;99.90
10149;DHT22;5115;50.920;6.376;2022-11-30T02:33:34;8.60;99.90
10149;DHT22;5115;50.920;6.376;2022-11-30T02:36:02;8.50;99.90
10149;DHT22;5115;50.920;6.376;2022-11-30T02:38:28;8.50;99.90
10149;DHT22;5115;50.920;6.376;2022-11-30T02:40:54;8.50;99.90
10149;DHT22;5115;50.920;6.376;2022-11-30T02:43:22;8.40;99.90
10149;DHT22;5115;50.920;6.376;2022-11-30T02:48:49;8.40;99.90
10149;DHT22;5115;50.920;6.376;2022-11-30T02:51:20;8.50;99.90
10149;DHT22;5115;50.920;6.376;2022-11-30T02:53:47;8.70;99.90
10149;DHT22;5115;50.920;6.376;2022-11-30T02:56:13;8.50;99.90
10149;DHT22;5115;50.920;6.376;2022-11-30T02:58:39;8.50;99.90
10149;DHT22;5115;50.920;6.376;2022-11-30T03:01:05;8.50;99.90
10149;DHT22;5115;50.920;6.376;2022-11-30T03:03:30;8.40;99.90
10149;DHT22;5115;50.920;6.376;2022-11-30T03:05:56;8.40;99.90
10149;DHT22;5115;50.920;6.376;2022-11-30T03:08:21;8.30;99.90
10149;DHT22;5115;50.920;6.376;2022-11-30T03:10:47;8.30;99.90
10149;DHT22;5115;50.920;6.376;2022-11-30T03:13:13;8.30;99.90
10149;DHT22;5115;50.920;6.376;2022-11-30T03:15:38;8.30;99.90
10149;DHT22;5115;50.920;6.376;2022-11-30T03:18:04;8.40;99.90
10149;DHT22;5115;50.920;6.376;2022-11-30T03:20:30;8.30;99.90
10149;DHT22;5115;50.920;6.376;2022-11-30T03:23:00;8.30;99.90
10149;DHT22;5115;50.920;6.376;2022-11-30T03:25:26;8.30;99.90
10149;DHT22;5115;50.920;6.376;2022-11-30T03:27:51;8.30;99.90
10149;DHT22;5115;50.920;6.376;2022-11-30T03:30:17;8.30;99.90
10149;DHT22;5115;50.920;6.376;2022-11-30T03:32:42;8.30;99.90
10149;DHT22;5115;50.920;6.376;2022-11-30T03:35:08;8.20;99.90
10149;DHT22;5115;50.920;6.376;2022-11-30T03:37:34;8.20;99.90
10149;DHT22;5115;50.920;6.376;2022-11-30T03:39:59;8.20;99.90
10149;DHT22;5115;50.920;6.376;2022-11-30T03:42:25;8.30;99.90
10149;DHT22;5115;50.920;6.376;2022-11-30T03:44:50;8.30;99.90
10149;DHT22;5115;50.920;6.376;2022-11-30T03:47:16;8.30;99.90
10149;DHT22;5115;50.920;6.376;2022-11-30T03:49:41;9.00;99.90
10149;DHT22;5115;50.920;6.376;2022-11-30T03:52:07;8.40;99.90
10149;DHT22;5115;50.920;6.376;2022-11-30T03:54:32;8.40;99.90
10149;DHT22;5115;50.920;6.376;2022-11-30T03:56:58;8.40;99.90
10149;DHT22;5115;50.920;6.376;2022-11-30T03:59:23;8.40;99.90
10149;DHT22;5115;50.920;6.376;2022-11-30T04:01:49;8.40;99.90
10149;DHT22;5115;50.920;6.376;2022-11-30T04:04:14;8.30;99.90
10149;DHT22;5115;50.920;6.376;2022-11-30T04:06:40;8.40;99.90
10149;DHT22;5115;50.920;6.376;2022-11-30T04:09:05;8.40;99.90
10149;DHT22;5115;50.920;6.376;2022-11-30T04:11:31;8.40;99.90
10149;DHT22;5115;50.920;6.376;2022-11-30T04:13:57;8.40;99.90
10149;DHT22;5115;50.920;6.376;2022-11-30T04:16:22;8.50;99.90
10149;DHT22;5115;50.920;6.376;2022-11-30T04:18:48;8.50;99.90
10149;DHT22;5115;50.920;6.376;2022-11-30T04:21:13;8.40;99.90
10149;DHT22;5115;50.920;6.376;2022-11-30T04:23:39;8.50;99.90
10149;DHT22;5115;50.920;6.376;2022-11-30T04:26:07;8.50;99.90
10149;DHT22;5115;50.920;6.376;2022-11-30T04:28:34;8.50;99.90
10149;DHT22;5115;50.920;6.376;2022-11-30T04:31:00;8.50;99.90
10149;DHT22;5115;50.920;6.376;2022-11-30T04:33:27;8.50;99.90
10149;DHT22;5115;50.920;6.376;2022-11-30T04:35:56;8.50;99.90
10149;DHT22;5115;50.920;6.376;2022-11-30T04:38:23;8.60;99.90
10149;DHT22;5115;50.920;6.376;2022-11-30T04:40:48;8.50;99.90
10149;DHT22;5115;50.920;6.376;2022-11-30T04:43:14;8.50;99.90
10149;DHT22;5115;50.920;6.376;2022-11-30T04:45:40;8.50;99.90
10149;DHT22;5115;50.920;6.376;2022-11-30T04:48:06;8.60;99.90
10149;DHT22;5115;50.920;6.376;2022-11-30T04:50:32;8.60;99.90
10149;DHT22;5115;50.920;6.376;2022-11-30T04:52:58;8.50;99.90
10149;DHT22;5115;50.920;6.376;2022-11-30T04:55:24;8.50;99.90
10149;DHT22;5115;50.920;6.376;2022-11-30T04:57:49;8.50;99.90
10149;DHT22;5115;50.920;6.376;2022-11-30T05:00:16;8.50;99.90
10149;DHT22;5115;50.920;6.376;2022-11-30T05:02:42;8.50;99.90
10149;DHT22;5115;50.920;6.376;2022-11-30T05:05:09;8.50;99.90
10149;DHT22;5115;50.920;6.376;2022-11-30T05:07:35;8.50;99.90
10149;DHT22;5115;50.920;6.376;2022-11-30T05:10:01;8.50;99.90
10149;DHT22;5115;50.920;6.376;2022-11-30T05:12:26;8.50;99.90
10149;DHT22;5115;50.920;6.376;2022-11-30T05:14:52;8.60;99.90
10149;DHT22;5115;50.920;6.376;2022-11-30T05:17:17;8.60;99.90
10149;DHT22;5115;50.920;6.376;2022-11-30T05:19:43;7.80;99.90
10149;DHT22;5115;50.920;6.376;2022-11-30T05:22:08;8.70;99.90
10149;DHT22;5115;50.920;6.376;2022-11-30T05:24:34;8.70;99.90
10149;DHT22;5115;50.920;6.376;2022-11-30T05:26:59;8.70;99.90
10149;DHT22;5115;50.920;6.376;2022-11-30T05:29:25;8.70;99.90
10149;DHT22;5115;50.920;6.376;2022-11-30T05:31:51;8.70;99.90
10149;DHT22;5115;50.920;6.376;2022-11-30T05:34:16;8.70;99.90
10149;DHT22;5115;50.920;6.376;2022-11-30T05:36:42;8.70;99.90
10149;DHT22;5115;50.920;6.376;2022-11-30T05:39:07;8.60;99.90
10149;DHT22;5115;50.920;6.376;2022-11-30T05:41:33;8.50;99.90
10149;DHT22;5115;50.920;6.376;2022-11-30T05:43:58;8.50;99.90
10149;DHT22;5115;50.920;6.376;2022-11-30T05:46:24;8.60;99.90
10149;DHT22;5115;50.920;6.376;2022-11-30T05:48:49;8.50;99.90
10149;DHT22;5115;50.920;6.376;2022-11-30T05:51:17;8.50;99.90
10149;DHT22;5115;50.920;6.376;2022-11-30T05:53:44;8.40;99.90
10149;DHT22;5115;50.920;6.376;2022-11-30T05:56:12;8.40;99.90
10149;DHT22;5115;50.920;6.376;2022-11-30T05:58:39;8.40;99.90
10149;DHT22;5115;50.920;6.376;2022-11-30T06:01:05;8.40;99.90
10149;DHT22;5115;50.920;6.376;2022-11-30T06:03:32;8.40;99.90
10149;DHT22;5115;50.920;6.376;2022-11-30T06:05:58;8.30;99.90
10149;DHT22;5115;50.920;6.376;2022-11-30T06:08:25;8.30;99.90
10149;DHT22;5115;50.920;6.376;2022-11-30T06:10:52;8.20;99.90
10149;DHT22;5115;50.920;6.376;2022-11-30T06:13:18;8.20;99.90
10149;DHT22;5115;50.920;6.376;2022-11-30T06:15:44;8.20;99.90
10149;DHT22;5115;50.920;6.376;2022-11-30T06:18:11;8.20;99.90
10149;DHT22;5115;50.920;6.376;2022-11-30T06:20:38;8.20;99.90
10149;DHT22;5115;50.920;6.376;2022-11-30T06:23:03;8.20;99.90
10149;DHT22;5115;50.920;6.376;2022-11-30T06:25:29;8.30;99.90
10149;DHT22;5115;50.920;6.376;2022-11-30T06:27:55;8.20;99.90
10149;DHT22;5115;50.920;6.376;2022-11-30T06:30:21;8.20;99.90
10149;DHT22;5115;50.920;6.376;2022-11-30T06:32:48;8.20;99.90
10149;DHT22;5115;50.920;6.376;2022-11-30T06:35:14;8.10;99.90
10149;DHT22;5115;50.920;6.376;2022-11-30T06:37:40;8.00;99.90
10149;DHT22;5115;50.920;6.376;2022-11-30T06:40:06;8.10;99.90
10149;DHT22;5115;50.920;6.376;2022-11-30T06:42:33;8.10;99.90
10149;DHT22;5115;50.920;6.376;2022-11-30T06:44:59;8.10;99.90
10149;DHT22;5115;50.920;6.376;2022-11-30T06:47:26;8.10;99.90
10149;DHT22;5115;50.920;6.376;2022-11-30T06:49:52;8.10;99.90
10149;DHT22;5115;50.920;6.376;2022-11-30T06:52:18;8.00;99.90
10149;DHT22;5115;50.920;6.376;2022-11-30T06:54:43;8.00;99.90
10149;DHT22;5115;50.920;6.376;2022-11-30T06:57:09;8.00;99.90
10149;DHT22;5115;50.920;6.376;2022-11-30T06:59:34;8.00;99.90
10149;DHT22;5115;50.920;6.376;2022-11-30T07:02:10;8.10;99.90
10149;DHT22;5115;50.920;6.376;2022-11-30T07:04:36;8.10;99.90
10149;DHT22;5115;50.920;6.376;2022-11-30T07:07:01;8.10;99.90
10149;DHT22;5115;50.920;6.376;2022-11-30T07:09:27;8.10;99.90
10149;DHT22;5115;50.920;6.376;2022-11-30T07:11:52;8.10;99.90
10149;DHT22;5115;50.920;6.376;2022-11-30T07:14:18;8.10;99.90
10149;DHT22;5115;50.920;6.376;2022-11-30T07:16:43;8.00;99.90
10149;DHT22;5115;50.920;6.376;2022-11-30T07:19:09;8.00;99.90
10149;DHT22;5115;50.920;6.376;2022-11-30T07:21:34;8.00;99.90
10149;DHT22;5115;50.920;6.376;2022-11-30T07:24:00;8.10;99.90
10149;DHT22;5115;50.920;6.376;2022-11-30T07:26:44;8.10;99.90
10149;DHT22;5115;50.920;6.376;2022-11-30T07:29:09;8.20;99.90
10149;DHT22;5115;50.920;6.376;2022-11-30T07:31:35;8.20;99.90
10149;DHT22;5115;50.920;6.376;2022-11-30T07:34:08;8.20;99.90
10149;DHT22;5115;50.920;6.376;2022-11-30T07:36:35;8.30;99.90
10149;DHT22;5115;50.920;6.376;2022-11-30T07:39:02;8.70;99.90
10149;DHT22;5115;50.920;6.376;2022-11-30T07:41:27;8.20;99.90
10149;DHT22;5115;50.920;6.376;2022-11-30T07:43:53;8.20;99.90
10149;DHT22;5115;50.920;6.376;2022-11-30T07:46:18;8.30;99.90
10149;DHT22;5115;50.920;6.376;2022-11-30T07:48:45;8.30;99.90
10149;DHT22;5115;50.920;6.376;2022-11-30T07:51:16;8.30;99.90
10149;DHT22;5115;50.920;6.376;2022-11-30T07:53:42;7.40;99.90
10149;DHT22;5115;50.920;6.376;2022-11-30T07:56:10;8.30;99.90
10149;DHT22;5115;50.920;6.376;2022-11-30T07:58:36;8.30;99.90
10149;DHT22;5115;50.920;6.376;2022-11-30T08:01:07;8.30;99.90
10149;DHT22;5115;50.920;6.376;2022-11-30T08:03:34;8.90;99.90
10149;DHT22;5115;50.920;6.376;2022-11-30T08:06:06;8.30;99.90
10149;DHT22;5115;50.920;6.376;2022-11-30T08:08:34;8.30;99.90
10149;DHT22;5115;50.920;6.376;2022-11-30T08:11:00;8.30;99.90
10149;DHT22;5115;50.920;6.376;2022-11-30T08:13:26;8.30;99.90
10149;DHT22;5115;50.920;6.376;2022-11-30T08:15:52;8.40;99.90
10149;DHT22;5115;50.920;6.376;2022-11-30T08:18:18;8.40;99.90
10149;DHT22;5115;50.920;6.376;2022-11-30T08:20:44;8.30;99.90
10149;DHT22;5115;50.920;6.376;2022-11-30T08:23:10;8.40;99.90
10149;DHT22;5115;50.920;6.376;2022-11-30T08:25:37;8.40;99.90
10149;DHT22;5115;50.920;6.376;2022-11-30T08:28:03;8.50;99.90
10149;DHT22;5115;50.920;6.376;2022-11-30T08:30:29;8.60;99.90
10149;DHT22;5115;50.920;6.376;2022-11-30T08:32:55;8.60;99.90
10149;DHT22;5115;50.920;6.376;2022-11-30T08:35:21;8.50;99.90
10149;DHT22;5115;50.920;6.376;2022-11-30T08:37:47;8.60;99.90
10149;DHT22;5115;50.920;6.376;2022-11-30T08:40:12;8.60;99.90
10149;DHT22;5115;50.920;6.376;2022-11-30T08:42:38;8.60;99.90
10149;DHT22;5115;50.920;6.376;2022-11-30T08:45:04;8.60;99.90
10149;DHT22;5115;50.920;6.376;2022-11-30T08:47:29;8.60;99.90
10149;DHT22;5115;50.920;6.376;2022-11-30T08:49:56;8.60;99.90
10149;DHT22;5115;50.920;6.376;2022-11-30T08:52:22;8.60;99.90
10149;DHT22;5115;50.920;6.376;2022-11-30T08:54:47;8.70;99.90
10149;DHT22;5115;50.920;6.376;2022-11-30T08:57:18;8.70;99.90
10149;DHT22;5115;50.920;6.376;2022-11-30T08:59:44;8.70;99.90
10149;DHT22;5115;50.920;6.376;2022-11-30T09:02:10;8.80;99.90
10149;DHT22;5115;50.920;6.376;2022-11-30T09:04:37;8.80;99.90
10149;DHT22;5115;50.920;6.376;2022-11-30T09:07:03;8.80;99.90
10149;DHT22;5115;50.920;6.376;2022-11-30T09:09:28;8.90;99.90
10149;DHT22;5115;50.920;6.376;2022-11-30T09:11:54;8.90;99.90
10149;DHT22;5115;50.920;6.376;2022-11-30T09:14:19;8.90;99.90
10149;DHT22;5115;50.920;6.376;2022-11-30T09:16:45;8.90;99.90
10149;DHT22;5115;50.920;6.376;2022-11-30T09:19:11;9.00;99.90
10149;DHT22;5115;50.920;6.376;2022-11-30T09:21:36;9.00;99.90
10149;DHT22;5115;50.920;6.376;2022-11-30T09:24:02;9.00;99.90
10149;DHT22;5115;50.920;6.376;2022-11-30T09:26:27;8.90;99.90
10149;DHT22;5115;50.920;6.376;2022-11-30T09:28:53;8.90;99.90
10149;DHT22;5115;50.920;6.376;2022-11-30T09:31:21;8.90;99.90
10149;DHT22;5115;50.920;6.376;2022-11-30T09:33:47;8.70;99.90
10149;DHT22;5115;50.920;6.376;2022-11-30T09:36:18;8.70;99.90
10149;DHT22;5115;50.920;6.376;2022-11-30T09:38:45;8.70;99.90
10149;DHT22;5115;50.920;6.376;2022-11-30T09:47:44;8.70;99.90
10149;DHT22;5115;50.920;6.376;2022-11-30T09:50:21;8.60;99.90
10149;DHT22;5115;50.920;6.376;2022-11-30T09:52:57;8.60;99.90
10149;DHT22;5115;50.920;6.376;2022-11-30T09:55:40;8.60;99.90
10149;DHT22;5115;50.920;6.376;2022-11-30T09:58:14;8.60;99.90
10149;DHT22;5115;50.920;6.376;2022-11-30T10:00:43;8.60;99.90
10149;DHT22;5115;50.920;6.376;2022-11-30T10:03:11;8.50;99.90
10149;DHT22;5115;50.920;6.376;2022-11-30T10:08:51;8.60;99.90
10149;DHT22;5115;50.920;6.376;2022-11-30T10:11:54;8.60;99.90
10149;DHT22;5115;50.920;6.376;2022-11-30T10:30:38;8.40;99.90
10149;DHT22;5115;50.920;6.376;2022-11-30T10:33:22;8.30;99.90
10149;DHT22;5115;50.920;6.376;2022-11-30T10:35:52;8.30;99.90
10149;DHT22;5115;50.920;6.376;2022-11-30T10:38:34;8.40;99.90
10149;DHT22;5115;50.920;6.376;2022-11-30T10:41:14;8.40;99.90
10149;DHT22;5115;50.920;6.376;2022-11-30T10:43:52;8.40;99.90
10149;DHT22;5115;50.920;6.376;2022-11-30T10:46:33;8.40;99.90
10149;DHT22;5115;50.920;6.376;2022-11-30T10:49:04;8.40;99.90
10149;DHT22;5115;50.920;6.376;2022-11-30T10:51:36;8.50;99.90
10149;DHT22;5115;50.920;6.376;2022-11-30T10:54:20;8.50;99.90
10149;DHT22;5115;50.920;6.376;2022-11-30T10:56:46;8.50;99.90
10149;DHT22;5115;50.920;6.376;2022-11-30T11:01:43;8.60;99.90
10149;DHT22;5115;50.920;6.376;2022-11-30T11:04:16;8.60;99.90
10149;DHT22;5115;50.920;6.376;2022-11-30T11:06:56;8.50;99.90
10149;DHT22;5115;50.920;6.376;2022-11-30T11:11:57;8.50;99.90
10149;DHT22;5115;50.920;6.376;2022-11-30T11:14:24;8.50;99.90
10149;DHT22;5115;50.920;6.376;2022-11-30T11:19:37;8.60;99.90
10149;DHT22;5115;50.920;6.376;2022-11-30T11:24:37;8.70;99.90
10149;DHT22;5115;50.920;6.376;2022-11-30T11:27:03;8.70;99.90
10149;DHT22;5115;50.920;6.376;2022-11-30T11:29:31;9.20;99.90
10149;DHT22;5115;50.920;6.376;2022-11-30T11:32:19;8.70;99.90
10149;DHT22;5115;50.920;6.376;2022-11-30T11:34:45;8.60;99.90
10149;DHT22;5115;50.920;6.376;2022-11-30T11:42:35;8.60;99.90
10149;DHT22;5115;50.920;6.376;2022-11-30T11:45:03;8.70;99.90
10149;DHT22;5115;50.920;6.376;2022-11-30T11:47:39;8.70;99.90
10149;DHT22;5115;50.920;6.376;2022-11-30T11:52:48;8.70;99.90
10149;DHT22;5115;50.920;6.376;2022-11-30T11:55:18;8.70;99.90
10149;DHT22;5115;50.920;6.376;2022-11-30T11:57:55;8.80;99.90
10149;DHT22;5115;50.920;6.376;2022-11-30T12:00:23;8.70;99.90
10149;DHT22;5115;50.920;6.376;2022-11-30T12:03:11;8.70;99.90
10149;DHT22;5115;50.920;6.376;2022-11-30T12:05:48;8.60;99.90
10149;DHT22;5115;50.920;6.376;2022-11-30T12:13:42;8.70;99.90
10149;DHT22;5115;50.920;6.376;2022-11-30T12:21:15;8.70;99.90
10149;DHT22;5115;50.920;6.376;2022-11-30T12:38:31;8.70;99.90
10149;DHT22;5115;50.920;6.376;2022-11-30T12:41:23;8.60;99.90
10149;DHT22;5115;50.920;6.376;2022-11-30T12:44:15;8.60;99.90
10149;DHT22;5115;50.920;6.376;2022-11-30T12:47:21;8.70;99.90
10149;DHT22;5115;50.920;6.376;2022-11-30T12:49:51;8.60;99.90
10149;DHT22;5115;50.920;6.376;2022-11-30T12:58:00;8.60;99.90
10149;DHT22;5115;50.920;6.376;2022-11-30T13:00:58;8.50;99.90
10149;DHT22;5115;50.920;6.376;2022-11-30T13:05:58;8.50;99.90
10149;DHT22;5115;50.920;6.376;2022-11-30T13:08:37;8.70;99.90
10149;DHT22;5115;50.920;6.376;2022-11-30T13:11:13;8.70;99.90
10149;DHT22;5115;50.920;6.376;2022-11-30T13:13:49;8.60;99.90
10149;DHT22;5115;50.920;6.376;2022-11-30T13:16:16;8.70;99.90
10149;DHT22;5115;50.920;6.376;2022-11-30T13:18:43;8.60;99.90
10149;DHT22;5115;50.920;6.376;2022-11-30T13:21:18;9.40;99.90
10149;DHT22;5115;50.920;6.376;2022-11-30T13:23:59;9.00;99.90
10149;DHT22;5115;50.920;6.376;2022-11-30T13:26:36;8.50;99.90
10149;DHT22;5115;50.920;6.376;2022-11-30T13:29:13;8.50;99.90
10149;DHT22;5115;50.920;6.376;2022-11-30T13:32:25;8.50;99.90
10149;DHT22;5115;50.920;6.376;2022-11-30T13:34:32;8.50;99.90
10149;DHT22;5115;50.920;6.376;2022-11-30T13:37:12;8.50;99.90
10149;DHT22;5115;50.920;6.376;2022-11-30T13:39:53;8.60;99.90
10149;DHT22;5115;50.920;6.376;2022-11-30T13:44:53;8.60;99.90
10149;DHT22;5115;50.920;6.376;2022-11-30T13:47:32;8.60;99.90
10149;DHT22;5115;50.920;6.376;2022-11-30T13:50:06;8.60;99.90
10149;DHT22;5115;50.920;6.376;2022-11-30T14:05:47;8.60;99.90
10149;DHT22;5115;50.920;6.376;2022-11-30T14:10:53;7.50;99.90
10149;DHT22;5115;50.920;6.376;2022-11-30T14:21:00;8.60;99.90
10149;DHT22;5115;50.920;6.376;2022-11-30T14:26:15;8.60;99.90
10149;DHT22;5115;50.920;6.376;2022-11-30T14:28:56;8.70;99.90
10149;DHT22;5115;50.920;6.376;2022-11-30T14:31:27;8.70;99.90
10149;DHT22;5115;50.920;6.376;2022-11-30T14:33:59;8.70;99.90
10149;DHT22;5115;50.920;6.376;2022-11-30T14:36:36;8.70;99.90
10149;DHT22;5115;50.920;6.376;2022-11-30T14:39:23;9.20;99.90
10149;DHT22;5115;50.920;6.376;2022-11-30T14:41:48;8.70;99.90
10149;DHT22;5115;50.920;6.376;2022-11-30T14:44:14;8.70;99.90
10149;DHT22;5115;50.920;6.376;2022-11-30T14:46:40;8.70;99.90
10149;DHT22;5115;50.920;6.376;2022-11-30T14:49:15;8.70;99.90
10149;DHT22;5115;50.920;6.376;2022-11-30T14:52:03;8.70;99.90
10149;DHT22;5115;50.920;6.376;2022-11-30T14:54:46;8.70;99.90
10149;DHT22;5115;50.920;6.376;2022-11-30T14:57:26;8.60;99.90
10149;DHT22;5115;50.920;6.376;2022-11-30T14:59:57;8.60;99.90
10149;DHT22;5115;50.920;6.376;2022-11-30T15:04:58;8.70;99.90
10149;DHT22;5115;50.920;6.376;2022-11-30T15:07:25;8.70;99.90
10149;DHT22;5115;50.920;6.376;2022-11-30T15:10:06;8.70;99.90
10149;DHT22;5115;50.920;6.376;2022-11-30T15:12:34;8.70;99.90
10149;DHT22;5115;50.920;6.376;2022-11-30T15:17:30;8.70;99.90
10149;DHT22;5115;50.920;6.376;2022-11-30T15:19:56;8.70;99.90
10149;DHT22;5115;50.920;6.376;2022-11-30T15:22:22;8.70;99.90
10149;DHT22;5115;50.920;6.376;2022-11-30T15:24:48;8.70;99.90
10149;DHT22;5115;50.920;6.376;2022-11-30T15:27:21;8.70;99.90
10149;DHT22;5115;50.920;6.376;2022-11-30T15:29:57;8.70;99.90
10149;DHT22;5115;50.920;6.376;2022-11-30T15:32:24;8.60;99.90
10149;DHT22;5115;50.920;6.376;2022-11-30T15:37:15;8.70;99.90
10149;DHT22;5115;50.920;6.376;2022-11-30T15:39:50;8.70;99.90
10149;DHT22;5115;50.920;6.376;2022-11-30T15:42:19;9.60;99.90
10149;DHT22;5115;50.920;6.376;2022-11-30T15:44:48;8.50;99.90
10149;DHT22;5115;50.920;6.376;2022-11-30T15:47:25;8.50;99.90
10149;DHT22;5115;50.920;6.376;2022-11-30T15:49:54;8.50;99.90
10149;DHT22;5115;50.920;6.376;2022-11-30T15:52:25;8.50;99.90
10149;DHT22;5115;50.920;6.376;2022-11-30T15:54:58;8.50;99.90
10149;DHT22;5115;50.920;6.376;2022-11-30T15:57:57;8.40;99.90
10149;DHT22;5115;50.920;6.376;2022-11-30T16:00:24;8.40;99.90
10149;DHT22;5115;50.920;6.376;2022-11-30T16:03:09;8.40;99.90
10149;DHT22;5115;50.920;6.376;2022-11-30T16:05:34;8.50;99.90
10149;DHT22;5115;50.920;6.376;2022-11-30T16:08:01;8.50;99.90
10149;DHT22;5115;50.920;6.376;2022-11-30T16:10:36;8.40;99.90
10149;DHT22;5115;50.920;6.376;2022-11-30T16:13:04;8.40;99.90
10149;DHT22;5115;50.920;6.376;2022-11-30T16:15:35;8.30;99.90
10149;DHT22;5115;50.920;6.376;2022-11-30T16:20:33;8.90;99.90
10149;DHT22;5115;50.920;6.376;2022-11-30T16:22:58;8.40;99.90
10149;DHT22;5115;50.920;6.376;2022-11-30T16:25:25;8.30;99.90
10149;DHT22;5115;50.920;6.376;2022-11-30T16:27:51;8.30;99.90
10149;DHT22;5115;50.920;6.376;2022-11-30T16:30:21;8.30;99.90
10149;DHT22;5115;50.920;6.376;2022-11-30T16:32:49;8.30;99.90
10149;DHT22;5115;50.920;6.376;2022-11-30T16:35:23;8.30;99.90
10149;DHT22;5115;50.920;6.376;2022-11-30T16:37:50;8.30;99.90
10149;DHT22;5115;50.920;6.376;2022-11-30T16:40:16;8.30;99.90
10149;DHT22;5115;50.920;6.376;2022-11-30T16:42:42;8.30;99.90
10149;DHT22;5115;50.920;6.376;2022-11-30T16:45:17;8.40;99.90
10149;DHT22;5115;50.920;6.376;2022-11-30T16:47:43;8.30;99.90
10149;DHT22;5115;50.920;6.376;2022-11-30T16:50:11;8.30;99.90
10149;DHT22;5115;50.920;6.376;2022-11-30T16:52:37;8.30;99.90
10149;DHT22;5115;50.920;6.376;2022-11-30T16:57:39;8.20;99.90
10149;DHT22;5115;50.920;6.376;2022-11-30T17:00:06;8.20;99.90
10149;DHT22;5115;50.920;6.376;2022-11-30T17:02:32;8.10;99.90
10149;DHT22;5115;50.920;6.376;2022-11-30T17:04:59;8.20;99.90
10149;DHT22;5115;50.920;6.376;2022-11-30T17:07:24;8.20;99.90
10149;DHT22;5115;50.920;6.376;2022-11-30T17:09:50;8.10;99.90
10149;DHT22;5115;50.920;6.376;2022-11-30T17:12:15;8.10;99.90
10149;DHT22;5115;50.920;6.376;2022-11-30T17:14:41;8.60;99.90
10149;DHT22;5115;50.920;6.376;2022-11-30T17:17:06;8.10;99.90
10149;DHT22;5115;50.920;6.376;2022-11-30T17:19:32;8.20;99.90
10149;DHT22;5115;50.920;6.376;2022-11-30T17:21:58;8.10;99.90
10149;DHT22;5115;50.920;6.376;2022-11-30T17:24:24;8.20;99.90
10149;DHT22;5115;50.920;6.376;2022-11-30T17:26:49;8.00;99.90
10149;DHT22;5115;50.920;6.376;2022-11-30T17:29:15;8.10;99.90
10149;DHT22;5115;50.920;6.376;2022-11-30T17:31:40;8.10;99.90
10149;DHT22;5115;50.920;6.376;2022-11-30T17:34:06;8.20;99.90
10149;DHT22;5115;50.920;6.376;2022-11-30T17:36:33;8.20;99.90
10149;DHT22;5115;50.920;6.376;2022-11-30T17:39:02;8.20;99.90
10149;DHT22;5115;50.920;6.376;2022-11-30T17:41:28;8.10;99.90
10149;DHT22;5115;50.920;6.376;2022-11-30T17:43:54;8.20;99.90
10149;DHT22;5115;50.920;6.376;2022-11-30T17:46:19;8.20;99.90
10149;DHT22;5115;50.920;6.376;2022-11-30T17:48:46;8.20;99.90
10149;DHT22;5115;50.920;6.376;2022-11-30T17:51:12;8.10;99.90
10149;DHT22;5115;50.920;6.376;2022-11-30T17:53:39;8.20;99.90
10149;DHT22;5115;50.920;6.376;2022-11-30T17:56:10;8.10;99.90
10149;DHT22;5115;50.920;6.376;2022-11-30T17:58:38;8.20;99.90
10149;DHT22;5115;50.920;6.376;2022-11-30T18:01:05;7.30;99.90
10149;DHT22;5115;50.920;6.376;2022-11-30T18:03:35;8.30;99.90
10149;DHT22;5115;50.920;6.376;2022-11-30T18:06:01;8.20;99.90
10149;DHT22;5115;50.920;6.376;2022-11-30T18:08:28;8.30;99.90
10149;DHT22;5115;50.920;6.376;2022-11-30T18:10:53;9.70;99.90
10149;DHT22;5115;50.920;6.376;2022-11-30T18:13:20;8.30;99.90
10149;DHT22;5115;50.920;6.376;2022-11-30T18:15:46;8.40;99.90
10149;DHT22;5115;50.920;6.376;2022-11-30T18:18:12;8.40;99.90
10149;DHT22;5115;50.920;6.376;2022-11-30T18:20:37;8.40;99.90
10149;DHT22;5115;50.920;6.376;2022-11-30T18:23:03;8.40;99.90